sensor_id;sensor_type;location;lat;lon;timestamp;P1;durP1;ratioP1;P2;durP2;ratioP2
1360;SDS011;674;45.552;-122.600;2023-04-03T00:01:34;3.03;;;1.73;;
1360;SDS011;674;45.552;-122.600;2023-04-03T00:04:06;2.60;;;1.50;;
1360;SDS011;674;45.552;-122.600;2023-04-03T00:06:34;6.23;;;5.47;;
1360;SDS011;674;45.552;-122.600;2023-04-03T00:09:03;2.03;;;1.03;;
1360;SDS011;674;45.552;-122.600;2023-04-03T00:11:34;3.30;;;1.07;;
1360;SDS011;674;45.552;-122.600;2023-04-03T00:14:03;2.08;;;0.80;;
1360;SDS011;674;45.552;-122.600;2023-04-03T00:16:33;1.90;;;0.83;;
1360;SDS011;674;45.552;-122.600;2023-04-03T00:19:04;2.47;;;1.10;;
1360;SDS011;674;45.552;-122.600;2023-04-03T00:21:33;2.33;;;0.80;;
1360;SDS011;674;45.552;-122.600;2023-04-03T00:24:03;1.83;;;0.63;;
1360;SDS011;674;45.552;-122.600;2023-04-03T00:26:32;2.10;;;0.90;;
1360;SDS011;674;45.552;-122.600;2023-04-03T00:29:01;2.70;;;0.68;;
1360;SDS011;674;45.552;-122.600;2023-04-03T00:31:31;1.60;;;0.50;;
1360;SDS011;674;45.552;-122.600;2023-04-03T00:33:59;2.10;;;1.20;;
1360;SDS011;674;45.552;-122.600;2023-04-03T00:36:28;6.50;;;5.90;;
1360;SDS011;674;45.552;-122.600;2023-04-03T00:38:57;7.78;;;7.13;;
1360;SDS011;674;45.552;-122.600;2023-04-03T00:41:25;3.10;;;1.10;;
1360;SDS011;674;45.552;-122.600;2023-04-03T00:43:54;3.13;;;1.30;;
1360;SDS011;674;45.552;-122.600;2023-04-03T00:46:23;2.57;;;0.90;;
1360;SDS011;674;45.552;-122.600;2023-04-03T00:48:51;2.63;;;0.70;;
1360;SDS011;674;45.552;-122.600;2023-04-03T00:51:22;2.00;;;0.65;;
1360;SDS011;674;45.552;-122.600;2023-04-03T00:53:53;1.73;;;0.70;;
1360;SDS011;674;45.552;-122.600;2023-04-03T00:56:26;1.90;;;0.80;;
1360;SDS011;674;45.552;-122.600;2023-04-03T00:59:01;1.70;;;0.80;;
1360;SDS011;674;45.552;-122.600;2023-04-03T01:01:35;1.93;;;0.63;;
1360;SDS011;674;45.552;-122.600;2023-04-03T01:04:05;2.60;;;1.07;;
1360;SDS011;674;45.552;-122.600;2023-04-03T01:06:34;1.63;;;0.60;;
1360;SDS011;674;45.552;-122.600;2023-04-03T01:09:04;2.60;;;1.40;;
1360;SDS011;674;45.552;-122.600;2023-04-03T01:11:33;2.00;;;0.90;;
1360;SDS011;674;45.552;-122.600;2023-04-03T01:14:02;2.00;;;0.87;;
1360;SDS011;674;45.552;-122.600;2023-04-03T01:16:33;2.57;;;0.90;;
1360;SDS011;674;45.552;-122.600;2023-04-03T01:19:02;2.30;;;1.03;;
1360;SDS011;674;45.552;-122.600;2023-04-03T01:27:04;2.20;;;1.00;;
1360;SDS011;674;45.552;-122.600;2023-04-03T01:29:34;2.33;;;1.00;;
1360;SDS011;674;45.552;-122.600;2023-04-03T01:32:03;5.30;;;1.42;;
1360;SDS011;674;45.552;-122.600;2023-04-03T01:34:32;2.50;;;1.30;;
1360;SDS011;674;45.552;-122.600;2023-04-03T01:37:01;4.87;;;1.53;;
1360;SDS011;674;45.552;-122.600;2023-04-03T01:39:31;3.30;;;1.60;;
1360;SDS011;674;45.552;-122.600;2023-04-03T01:42:00;4.20;;;1.90;;
1360;SDS011;674;45.552;-122.600;2023-04-03T01:44:29;3.30;;;2.10;;
1360;SDS011;674;45.552;-122.600;2023-04-03T01:46:57;4.07;;;1.63;;
1360;SDS011;674;45.552;-122.600;2023-04-03T01:49:26;2.90;;;1.77;;
1360;SDS011;674;45.552;-122.600;2023-04-03T01:51:54;2.70;;;1.70;;
1360;SDS011;674;45.552;-122.600;2023-04-03T01:54:23;2.97;;;1.77;;
1360;SDS011;674;45.552;-122.600;2023-04-03T01:56:52;2.90;;;1.27;;
1360;SDS011;674;45.552;-122.600;2023-04-03T01:59:20;3.37;;;1.93;;
1360;SDS011;674;45.552;-122.600;2023-04-03T02:01:49;2.60;;;1.27;;
1360;SDS011;674;45.552;-122.600;2023-04-03T02:04:18;2.30;;;1.10;;
1360;SDS011;674;45.552;-122.600;2023-04-03T02:06:46;1.90;;;1.00;;
1360;SDS011;674;45.552;-122.600;2023-04-03T02:09:15;3.87;;;1.30;;
1360;SDS011;674;45.552;-122.600;2023-04-03T02:11:44;2.80;;;1.30;;
1360;SDS011;674;45.552;-122.600;2023-04-03T02:14:12;2.60;;;1.60;;
1360;SDS011;674;45.552;-122.600;2023-04-03T02:16:41;6.20;;;2.47;;
1360;SDS011;674;45.552;-122.600;2023-04-03T02:19:10;2.57;;;1.60;;
1360;SDS011;674;45.552;-122.600;2023-04-03T02:21:38;3.60;;;2.50;;
1360;SDS011;674;45.552;-122.600;2023-04-03T02:24:07;3.97;;;2.50;;
1360;SDS011;674;45.552;-122.600;2023-04-03T02:26:36;4.90;;;2.80;;
1360;SDS011;674;45.552;-122.600;2023-04-03T02:29:05;4.13;;;2.87;;
1360;SDS011;674;45.552;-122.600;2023-04-03T02:31:33;5.33;;;3.20;;
1360;SDS011;674;45.552;-122.600;2023-04-03T02:34:02;6.90;;;4.47;;
1360;SDS011;674;45.552;-122.600;2023-04-03T02:36:31;6.70;;;4.50;;
1360;SDS011;674;45.552;-122.600;2023-04-03T02:38:59;7.57;;;5.30;;
1360;SDS011;674;45.552;-122.600;2023-04-03T02:41:28;8.07;;;5.47;;
1360;SDS011;674;45.552;-122.600;2023-04-03T02:44:02;6.40;;;4.60;;
1360;SDS011;674;45.552;-122.600;2023-04-03T02:46:32;4.50;;;3.10;;
1360;SDS011;674;45.552;-122.600;2023-04-03T02:49:01;5.90;;;3.90;;
1360;SDS011;674;45.552;-122.600;2023-04-03T02:51:30;6.27;;;4.33;;
1360;SDS011;674;45.552;-122.600;2023-04-03T02:53:58;7.33;;;4.70;;
1360;SDS011;674;45.552;-122.600;2023-04-03T02:56:28;4.70;;;3.20;;
1360;SDS011;674;45.552;-122.600;2023-04-03T02:58:56;5.40;;;3.70;;
1360;SDS011;674;45.552;-122.600;2023-04-03T03:01:25;3.83;;;1.70;;
1360;SDS011;674;45.552;-122.600;2023-04-03T03:03:59;4.75;;;2.13;;
1360;SDS011;674;45.552;-122.600;2023-04-03T03:06:28;2.90;;;1.70;;
1360;SDS011;674;45.552;-122.600;2023-04-03T03:08:56;5.30;;;1.73;;
1360;SDS011;674;45.552;-122.600;2023-04-03T03:11:25;2.90;;;2.10;;
1360;SDS011;674;45.552;-122.600;2023-04-03T03:13:55;3.70;;;2.13;;
1360;SDS011;674;45.552;-122.600;2023-04-03T03:16:24;3.63;;;1.63;;
1360;SDS011;674;45.552;-122.600;2023-04-03T03:18:53;2.50;;;1.50;;
1360;SDS011;674;45.552;-122.600;2023-04-03T03:21:23;2.70;;;1.50;;
1360;SDS011;674;45.552;-122.600;2023-04-03T03:23:52;2.37;;;1.30;;
1360;SDS011;674;45.552;-122.600;2023-04-03T03:26:20;3.10;;;1.60;;
1360;SDS011;674;45.552;-122.600;2023-04-03T03:28:49;6.60;;;2.70;;
1360;SDS011;674;45.552;-122.600;2023-04-03T03:31:18;4.07;;;2.30;;
1360;SDS011;674;45.552;-122.600;2023-04-03T03:33:47;5.60;;;4.90;;
1360;SDS011;674;45.552;-122.600;2023-04-03T03:36:15;5.70;;;3.37;;
1360;SDS011;674;45.552;-122.600;2023-04-03T03:38:44;4.57;;;2.60;;
1360;SDS011;674;45.552;-122.600;2023-04-03T03:41:13;3.97;;;2.63;;
1360;SDS011;674;45.552;-122.600;2023-04-03T03:43:41;5.50;;;2.40;;
1360;SDS011;674;45.552;-122.600;2023-04-03T03:46:10;2.97;;;2.17;;
1360;SDS011;674;45.552;-122.600;2023-04-03T03:48:39;3.80;;;2.70;;
1360;SDS011;674;45.552;-122.600;2023-04-03T03:51:10;3.90;;;2.73;;
1360;SDS011;674;45.552;-122.600;2023-04-03T03:53:39;5.80;;;4.80;;
1360;SDS011;674;45.552;-122.600;2023-04-03T03:56:08;5.70;;;4.60;;
1360;SDS011;674;45.552;-122.600;2023-04-03T03:58:37;3.40;;;2.40;;
1360;SDS011;674;45.552;-122.600;2023-04-03T04:01:06;4.70;;;2.90;;
1360;SDS011;674;45.552;-122.600;2023-04-03T04:03:36;4.10;;;2.63;;
1360;SDS011;674;45.552;-122.600;2023-04-03T04:06:05;4.17;;;2.53;;
1360;SDS011;674;45.552;-122.600;2023-04-03T04:08:33;4.90;;;3.13;;
1360;SDS011;674;45.552;-122.600;2023-04-03T04:11:02;4.60;;;2.73;;
1360;SDS011;674;45.552;-122.600;2023-04-03T04:13:30;4.20;;;2.63;;
1360;SDS011;674;45.552;-122.600;2023-04-03T04:15:59;3.23;;;2.10;;
1360;SDS011;674;45.552;-122.600;2023-04-03T04:18:28;3.70;;;2.60;;
1360;SDS011;674;45.552;-122.600;2023-04-03T04:20:57;4.20;;;2.97;;
1360;SDS011;674;45.552;-122.600;2023-04-03T04:23:26;4.70;;;2.60;;
1360;SDS011;674;45.552;-122.600;2023-04-03T04:25:54;6.07;;;2.73;;
1360;SDS011;674;45.552;-122.600;2023-04-03T04:28:23;4.10;;;2.80;;
1360;SDS011;674;45.552;-122.600;2023-04-03T04:30:52;4.90;;;3.00;;
1360;SDS011;674;45.552;-122.600;2023-04-03T04:33:20;6.17;;;3.40;;
1360;SDS011;674;45.552;-122.600;2023-04-03T04:35:49;5.73;;;4.00;;
1360;SDS011;674;45.552;-122.600;2023-04-03T04:38:19;5.83;;;4.37;;
1360;SDS011;674;45.552;-122.600;2023-04-03T04:40:48;5.20;;;3.83;;
1360;SDS011;674;45.552;-122.600;2023-04-03T04:43:17;5.43;;;3.83;;
1360;SDS011;674;45.552;-122.600;2023-04-03T04:45:45;6.57;;;4.60;;
1360;SDS011;674;45.552;-122.600;2023-04-03T04:48:14;5.20;;;4.23;;
1360;SDS011;674;45.552;-122.600;2023-04-03T04:50:43;8.10;;;4.90;;
1360;SDS011;674;45.552;-122.600;2023-04-03T04:53:12;5.53;;;4.43;;
1360;SDS011;674;45.552;-122.600;2023-04-03T04:55:40;5.40;;;3.90;;
1360;SDS011;674;45.552;-122.600;2023-04-03T04:58:09;6.00;;;4.47;;
1360;SDS011;674;45.552;-122.600;2023-04-03T05:00:38;7.27;;;4.90;;
1360;SDS011;674;45.552;-122.600;2023-04-03T05:03:07;7.33;;;4.57;;
1360;SDS011;674;45.552;-122.600;2023-04-03T05:05:36;7.88;;;4.38;;
1360;SDS011;674;45.552;-122.600;2023-04-03T05:08:05;7.33;;;4.70;;
1360;SDS011;674;45.552;-122.600;2023-04-03T05:10:35;6.10;;;4.63;;
1360;SDS011;674;45.552;-122.600;2023-04-03T05:13:04;8.57;;;5.10;;
1360;SDS011;674;45.552;-122.600;2023-04-03T05:15:32;7.10;;;5.30;;
1360;SDS011;674;45.552;-122.600;2023-04-03T05:18:01;9.47;;;6.53;;
1360;SDS011;674;45.552;-122.600;2023-04-03T05:20:31;12.87;;;8.70;;
1360;SDS011;674;45.552;-122.600;2023-04-03T05:23:00;26.25;;;17.20;;
1360;SDS011;674;45.552;-122.600;2023-04-03T05:25:29;24.48;;;14.95;;
1360;SDS011;674;45.552;-122.600;2023-04-03T05:28:00;16.52;;;12.77;;
1360;SDS011;674;45.552;-122.600;2023-04-03T05:30:28;14.50;;;9.43;;
1360;SDS011;674;45.552;-122.600;2023-04-03T05:32:58;11.48;;;8.45;;
1360;SDS011;674;45.552;-122.600;2023-04-03T05:35:27;9.18;;;6.47;;
1360;SDS011;674;45.552;-122.600;2023-04-03T05:37:55;9.23;;;6.70;;
1360;SDS011;674;45.552;-122.600;2023-04-03T05:40:24;8.07;;;6.60;;
1360;SDS011;674;45.552;-122.600;2023-04-03T05:42:53;6.30;;;5.10;;
1360;SDS011;674;45.552;-122.600;2023-04-03T05:45:22;8.18;;;4.65;;
1360;SDS011;674;45.552;-122.600;2023-04-03T05:47:50;5.95;;;4.30;;
1360;SDS011;674;45.552;-122.600;2023-04-03T05:50:19;5.88;;;5.00;;
1360;SDS011;674;45.552;-122.600;2023-04-03T05:52:49;6.68;;;5.57;;
1360;SDS011;674;45.552;-122.600;2023-04-03T05:55:18;12.07;;;9.30;;
1360;SDS011;674;45.552;-122.600;2023-04-03T05:57:47;11.02;;;6.85;;
1360;SDS011;674;45.552;-122.600;2023-04-03T06:00:17;7.60;;;5.93;;
1360;SDS011;674;45.552;-122.600;2023-04-03T06:02:46;6.45;;;5.43;;
1360;SDS011;674;45.552;-122.600;2023-04-03T06:05:15;7.43;;;6.68;;
1360;SDS011;674;45.552;-122.600;2023-04-03T06:07:43;9.02;;;7.65;;
1360;SDS011;674;45.552;-122.600;2023-04-03T06:10:12;8.70;;;7.25;;
1360;SDS011;674;45.552;-122.600;2023-04-03T06:12:41;8.20;;;6.68;;
1360;SDS011;674;45.552;-122.600;2023-04-03T06:15:09;9.07;;;8.18;;
1360;SDS011;674;45.552;-122.600;2023-04-03T06:17:38;11.27;;;9.73;;
1360;SDS011;674;45.552;-122.600;2023-04-03T06:20:07;11.77;;;10.60;;
1360;SDS011;674;45.552;-122.600;2023-04-03T06:22:36;10.95;;;9.95;;
1360;SDS011;674;45.552;-122.600;2023-04-03T06:25:05;18.23;;;14.95;;
1360;SDS011;674;45.552;-122.600;2023-04-03T06:27:34;82.82;;;46.58;;
1360;SDS011;674;45.552;-122.600;2023-04-03T06:30:02;82.13;;;49.67;;
1360;SDS011;674;45.552;-122.600;2023-04-03T06:32:32;32.30;;;20.75;;
1360;SDS011;674;45.552;-122.600;2023-04-03T06:35:00;28.30;;;22.50;;
1360;SDS011;674;45.552;-122.600;2023-04-03T06:37:29;21.48;;;16.98;;
1360;SDS011;674;45.552;-122.600;2023-04-03T06:39:58;12.80;;;8.40;;
1360;SDS011;674;45.552;-122.600;2023-04-03T06:42:27;10.02;;;8.88;;
1360;SDS011;674;45.552;-122.600;2023-04-03T06:44:56;9.15;;;6.38;;
1360;SDS011;674;45.552;-122.600;2023-04-03T06:47:24;7.78;;;6.15;;
1360;SDS011;674;45.552;-122.600;2023-04-03T06:49:53;9.73;;;5.90;;
1360;SDS011;674;45.552;-122.600;2023-04-03T06:52:22;7.30;;;5.05;;
1360;SDS011;674;45.552;-122.600;2023-04-03T06:54:50;6.20;;;5.53;;
1360;SDS011;674;45.552;-122.600;2023-04-03T06:57:24;7.47;;;6.78;;
1360;SDS011;674;45.552;-122.600;2023-04-03T06:59:52;6.75;;;5.95;;
1360;SDS011;674;45.552;-122.600;2023-04-03T07:02:21;9.35;;;6.13;;
1360;SDS011;674;45.552;-122.600;2023-04-03T07:04:50;6.82;;;5.15;;
1360;SDS011;674;45.552;-122.600;2023-04-03T07:07:18;7.20;;;5.55;;
1360;SDS011;674;45.552;-122.600;2023-04-03T07:09:47;5.88;;;4.82;;
1360;SDS011;674;45.552;-122.600;2023-04-03T07:12:16;5.40;;;3.95;;
1360;SDS011;674;45.552;-122.600;2023-04-03T07:14:45;6.13;;;4.50;;
1360;SDS011;674;45.552;-122.600;2023-04-03T07:17:13;7.88;;;5.63;;
1360;SDS011;674;45.552;-122.600;2023-04-03T07:19:42;6.13;;;4.30;;
1360;SDS011;674;45.552;-122.600;2023-04-03T07:22:10;6.80;;;4.50;;
1360;SDS011;674;45.552;-122.600;2023-04-03T07:24:39;6.63;;;3.67;;
1360;SDS011;674;45.552;-122.600;2023-04-03T07:27:07;5.38;;;4.15;;
1360;SDS011;674;45.552;-122.600;2023-04-03T07:29:36;6.88;;;4.20;;
1360;SDS011;674;45.552;-122.600;2023-04-03T07:32:05;9.43;;;4.70;;
1360;SDS011;674;45.552;-122.600;2023-04-03T07:34:34;4.70;;;3.38;;
1360;SDS011;674;45.552;-122.600;2023-04-03T07:37:03;7.50;;;4.70;;
1360;SDS011;674;45.552;-122.600;2023-04-03T07:39:32;9.20;;;4.38;;
1360;SDS011;674;45.552;-122.600;2023-04-03T07:42:01;7.32;;;5.00;;
1360;SDS011;674;45.552;-122.600;2023-04-03T07:44:29;7.72;;;5.20;;
1360;SDS011;674;45.552;-122.600;2023-04-03T07:46:58;4.78;;;3.67;;
1360;SDS011;674;45.552;-122.600;2023-04-03T07:49:27;5.45;;;4.28;;
1360;SDS011;674;45.552;-122.600;2023-04-03T07:51:55;6.32;;;5.20;;
1360;SDS011;674;45.552;-122.600;2023-04-03T07:54:24;7.15;;;5.75;;
1360;SDS011;674;45.552;-122.600;2023-04-03T07:56:53;6.28;;;5.68;;
1360;SDS011;674;45.552;-122.600;2023-04-03T07:59:21;6.32;;;5.32;;
1360;SDS011;674;45.552;-122.600;2023-04-03T08:01:49;5.88;;;4.40;;
1360;SDS011;674;45.552;-122.600;2023-04-03T08:04:18;5.60;;;4.85;;
1360;SDS011;674;45.552;-122.600;2023-04-03T08:06:47;6.60;;;4.70;;
1360;SDS011;674;45.552;-122.600;2023-04-03T08:09:15;13.52;;;6.07;;
1360;SDS011;674;45.552;-122.600;2023-04-03T08:11:44;8.52;;;5.75;;
1360;SDS011;674;45.552;-122.600;2023-04-03T08:14:13;5.70;;;4.13;;
1360;SDS011;674;45.552;-122.600;2023-04-03T08:16:46;9.00;;;4.70;;
1360;SDS011;674;45.552;-122.600;2023-04-03T08:19:15;7.20;;;4.10;;
1360;SDS011;674;45.552;-122.600;2023-04-03T08:21:53;5.85;;;4.70;;
1360;SDS011;674;45.552;-122.600;2023-04-03T08:24:22;6.15;;;4.40;;
1360;SDS011;674;45.552;-122.600;2023-04-03T08:26:50;6.05;;;4.15;;
1360;SDS011;674;45.552;-122.600;2023-04-03T08:29:19;6.40;;;3.95;;
1360;SDS011;674;45.552;-122.600;2023-04-03T08:31:48;5.68;;;4.13;;
1360;SDS011;674;45.552;-122.600;2023-04-03T08:34:18;5.47;;;4.15;;
1360;SDS011;674;45.552;-122.600;2023-04-03T08:36:46;7.15;;;3.80;;
1360;SDS011;674;45.552;-122.600;2023-04-03T08:39:15;4.13;;;3.10;;
1360;SDS011;674;45.552;-122.600;2023-04-03T08:41:44;4.05;;;3.20;;
1360;SDS011;674;45.552;-122.600;2023-04-03T08:44:15;5.75;;;3.60;;
1360;SDS011;674;45.552;-122.600;2023-04-03T08:47:27;7.22;;;3.33;;
1360;SDS011;674;45.552;-122.600;2023-04-03T08:50:07;4.32;;;3.10;;
1360;SDS011;674;45.552;-122.600;2023-04-03T08:52:44;6.45;;;3.20;;
1360;SDS011;674;45.552;-122.600;2023-04-03T08:55:26;4.30;;;3.05;;
1360;SDS011;674;45.552;-122.600;2023-04-03T08:58:15;5.18;;;2.55;;
1360;SDS011;674;45.552;-122.600;2023-04-03T09:03:36;4.07;;;3.00;;
1360;SDS011;674;45.552;-122.600;2023-04-03T09:09:54;4.10;;;2.80;;
1360;SDS011;674;45.552;-122.600;2023-04-03T09:23:32;3.53;;;2.92;;
1360;SDS011;674;45.552;-122.600;2023-04-03T09:26:14;6.28;;;3.35;;
1360;SDS011;674;45.552;-122.600;2023-04-03T09:29:02;6.68;;;3.33;;
1360;SDS011;674;45.552;-122.600;2023-04-03T09:31:38;4.53;;;3.50;;
1360;SDS011;674;45.552;-122.600;2023-04-03T09:34:13;5.35;;;3.05;;
1360;SDS011;674;45.552;-122.600;2023-04-03T09:36:55;4.55;;;2.65;;
1360;SDS011;674;45.552;-122.600;2023-04-03T09:39:26;4.75;;;2.58;;
1360;SDS011;674;45.552;-122.600;2023-04-03T09:42:03;5.28;;;2.80;;
1360;SDS011;674;45.552;-122.600;2023-04-03T09:44:53;4.95;;;2.67;;
1360;SDS011;674;45.552;-122.600;2023-04-03T09:47:33;4.00;;;3.20;;
1360;SDS011;674;45.552;-122.600;2023-04-03T09:52:49;3.20;;;2.65;;
1360;SDS011;674;45.552;-122.600;2023-04-03T09:55:20;5.28;;;2.22;;
1360;SDS011;674;45.552;-122.600;2023-04-03T09:57:58;5.80;;;3.13;;
1360;SDS011;674;45.552;-122.600;2023-04-03T10:00:35;6.53;;;2.80;;
1360;SDS011;674;45.552;-122.600;2023-04-03T10:03:22;4.95;;;2.80;;
1360;SDS011;674;45.552;-122.600;2023-04-03T10:05:58;4.35;;;2.22;;
1360;SDS011;674;45.552;-122.600;2023-04-03T10:08:29;6.55;;;2.10;;
1360;SDS011;674;45.552;-122.600;2023-04-03T10:11:14;4.10;;;2.35;;
1360;SDS011;674;45.552;-122.600;2023-04-03T10:13:51;6.15;;;3.10;;
1360;SDS011;674;45.552;-122.600;2023-04-03T10:17:48;3.15;;;2.00;;
1360;SDS011;674;45.552;-122.600;2023-04-03T10:28:05;5.05;;;2.88;;
1360;SDS011;674;45.552;-122.600;2023-04-03T10:30:58;4.38;;;2.80;;
1360;SDS011;674;45.552;-122.600;2023-04-03T10:33:45;4.68;;;2.38;;
1360;SDS011;674;45.552;-122.600;2023-04-03T10:42:03;4.88;;;2.35;;
1360;SDS011;674;45.552;-122.600;2023-04-03T10:47:35;5.20;;;2.75;;
1360;SDS011;674;45.552;-122.600;2023-04-03T10:52:57;3.80;;;2.10;;
1360;SDS011;674;45.552;-122.600;2023-04-03T10:55:58;6.20;;;2.30;;
1360;SDS011;674;45.552;-122.600;2023-04-03T10:58:32;6.40;;;2.80;;
1360;SDS011;674;45.552;-122.600;2023-04-03T11:01:18;5.18;;;2.60;;
1360;SDS011;674;45.552;-122.600;2023-04-03T11:04:08;4.35;;;2.22;;
1360;SDS011;674;45.552;-122.600;2023-04-03T11:06:42;5.18;;;2.88;;
1360;SDS011;674;45.552;-122.600;2023-04-03T11:12:01;6.18;;;2.65;;
1360;SDS011;674;45.552;-122.600;2023-04-03T11:14:39;2.92;;;2.00;;
1360;SDS011;674;45.552;-122.600;2023-04-03T11:19:56;4.13;;;2.67;;
1360;SDS011;674;45.552;-122.600;2023-04-03T11:22:31;3.10;;;2.20;;
1360;SDS011;674;45.552;-122.600;2023-04-03T11:25:06;7.65;;;2.80;;
1360;SDS011;674;45.552;-122.600;2023-04-03T11:27:51;4.63;;;2.80;;
1360;SDS011;674;45.552;-122.600;2023-04-03T11:33:13;3.78;;;2.00;;
1360;SDS011;674;45.552;-122.600;2023-04-03T11:35:50;3.75;;;2.33;;
1360;SDS011;674;45.552;-122.600;2023-04-03T11:38:31;4.00;;;2.50;;
1360;SDS011;674;45.552;-122.600;2023-04-03T11:41:04;3.50;;;2.50;;
1360;SDS011;674;45.552;-122.600;2023-04-03T11:43:37;3.53;;;1.95;;
1360;SDS011;674;45.552;-122.600;2023-04-03T11:46:10;4.82;;;3.20;;
1360;SDS011;674;45.552;-122.600;2023-04-03T11:48:42;5.30;;;2.08;;
1360;SDS011;674;45.552;-122.600;2023-04-03T11:53:43;3.47;;;1.55;;
1360;SDS011;674;45.552;-122.600;2023-04-03T12:04:17;3.50;;;1.75;;
1360;SDS011;674;45.552;-122.600;2023-04-03T12:12:26;7.50;;;2.80;;
1360;SDS011;674;45.552;-122.600;2023-04-03T12:14:53;3.83;;;2.22;;
1360;SDS011;674;45.552;-122.600;2023-04-03T12:17:23;3.40;;;2.40;;
1360;SDS011;674;45.552;-122.600;2023-04-03T12:19:55;3.28;;;2.20;;
1360;SDS011;674;45.552;-122.600;2023-04-03T12:22:23;4.03;;;2.92;;
1360;SDS011;674;45.552;-122.600;2023-04-03T12:24:52;5.82;;;2.35;;
1360;SDS011;674;45.552;-122.600;2023-04-03T12:27:25;3.30;;;2.13;;
1360;SDS011;674;45.552;-122.600;2023-04-03T12:40:58;5.57;;;3.25;;
1360;SDS011;674;45.552;-122.600;2023-04-03T12:46:53;5.40;;;3.80;;
1360;SDS011;674;45.552;-122.600;2023-04-03T12:51:54;5.97;;;4.43;;
1360;SDS011;674;45.552;-122.600;2023-04-03T12:54:27;5.07;;;3.30;;
1360;SDS011;674;45.552;-122.600;2023-04-03T12:59:51;7.10;;;3.27;;
1360;SDS011;674;45.552;-122.600;2023-04-03T13:02:21;5.22;;;3.72;;
1360;SDS011;674;45.552;-122.600;2023-04-03T13:04:52;5.45;;;3.80;;
1360;SDS011;674;45.552;-122.600;2023-04-03T13:07:26;7.75;;;4.57;;
1360;SDS011;674;45.552;-122.600;2023-04-03T13:15:26;12.68;;;8.57;;
1360;SDS011;674;45.552;-122.600;2023-04-03T13:17:57;6.90;;;4.95;;
1360;SDS011;674;45.552;-122.600;2023-04-03T13:20:27;6.95;;;4.85;;
1360;SDS011;674;45.552;-122.600;2023-04-03T13:23:08;8.40;;;5.90;;
1360;SDS011;674;45.552;-122.600;2023-04-03T13:25:42;6.00;;;3.35;;
1360;SDS011;674;45.552;-122.600;2023-04-03T13:28:14;4.78;;;3.13;;
1360;SDS011;674;45.552;-122.600;2023-04-03T13:31:00;6.07;;;3.47;;
1360;SDS011;674;45.552;-122.600;2023-04-03T13:33:43;5.35;;;4.07;;
1360;SDS011;674;45.552;-122.600;2023-04-03T13:36:30;3.65;;;3.00;;
1360;SDS011;674;45.552;-122.600;2023-04-03T13:39:06;3.75;;;2.90;;
1360;SDS011;674;45.552;-122.600;2023-04-03T13:41:42;5.18;;;3.38;;
1360;SDS011;674;45.552;-122.600;2023-04-03T13:46:51;5.72;;;3.80;;
1360;SDS011;674;45.552;-122.600;2023-04-03T13:49:22;6.07;;;3.97;;
1360;SDS011;674;45.552;-122.600;2023-04-03T13:52:01;3.83;;;3.00;;
1360;SDS011;674;45.552;-122.600;2023-04-03T13:54:59;5.47;;;4.30;;
1360;SDS011;674;45.552;-122.600;2023-04-03T13:57:52;6.70;;;4.93;;
1360;SDS011;674;45.552;-122.600;2023-04-03T14:03:26;5.10;;;4.55;;
1360;SDS011;674;45.552;-122.600;2023-04-03T14:05:58;7.07;;;4.20;;
1360;SDS011;674;45.552;-122.600;2023-04-03T14:08:28;5.57;;;4.72;;
1360;SDS011;674;45.552;-122.600;2023-04-03T14:11:12;8.82;;;6.63;;
1360;SDS011;674;45.552;-122.600;2023-04-03T14:14:05;7.78;;;6.97;;
1360;SDS011;674;45.552;-122.600;2023-04-03T14:16:40;8.32;;;5.47;;
1360;SDS011;674;45.552;-122.600;2023-04-03T14:19:31;7.93;;;5.95;;
1360;SDS011;674;45.552;-122.600;2023-04-03T14:22:10;6.07;;;4.60;;
1360;SDS011;674;45.552;-122.600;2023-04-03T14:24:42;6.50;;;4.60;;
1360;SDS011;674;45.552;-122.600;2023-04-03T14:27:18;6.15;;;4.78;;
1360;SDS011;674;45.552;-122.600;2023-04-03T14:29:52;7.45;;;6.65;;
1360;SDS011;674;45.552;-122.600;2023-04-03T14:32:22;7.35;;;5.35;;
1360;SDS011;674;45.552;-122.600;2023-04-03T14:34:52;10.95;;;7.30;;
1360;SDS011;674;45.552;-122.600;2023-04-03T14:37:22;10.52;;;8.15;;
1360;SDS011;674;45.552;-122.600;2023-04-03T14:39:52;7.25;;;6.35;;
1360;SDS011;674;45.552;-122.600;2023-04-03T14:42:25;7.38;;;6.53;;
1360;SDS011;674;45.552;-122.600;2023-04-03T14:44:55;10.82;;;7.72;;
1360;SDS011;674;45.552;-122.600;2023-04-03T14:47:26;8.10;;;7.28;;
1360;SDS011;674;45.552;-122.600;2023-04-03T14:49:59;8.73;;;7.78;;
1360;SDS011;674;45.552;-122.600;2023-04-03T14:52:30;8.27;;;6.35;;
1360;SDS011;674;45.552;-122.600;2023-04-03T14:55:01;7.18;;;6.45;;
1360;SDS011;674;45.552;-122.600;2023-04-03T14:57:31;7.55;;;6.25;;
1360;SDS011;674;45.552;-122.600;2023-04-03T15:00:01;7.00;;;6.30;;
1360;SDS011;674;45.552;-122.600;2023-04-03T15:02:35;7.03;;;6.07;;
1360;SDS011;674;45.552;-122.600;2023-04-03T15:05:06;8.88;;;7.95;;
1360;SDS011;674;45.552;-122.600;2023-04-03T15:07:40;7.82;;;7.03;;
1360;SDS011;674;45.552;-122.600;2023-04-03T15:12:54;7.75;;;6.43;;
1360;SDS011;674;45.552;-122.600;2023-04-03T15:15:23;8.70;;;7.47;;
1360;SDS011;674;45.552;-122.600;2023-04-03T15:17:56;9.32;;;7.57;;
1360;SDS011;674;45.552;-122.600;2023-04-03T15:20:25;10.38;;;6.65;;
1360;SDS011;674;45.552;-122.600;2023-04-03T15:22:55;8.35;;;5.85;;
1360;SDS011;674;45.552;-122.600;2023-04-03T15:25:24;6.72;;;6.03;;
1360;SDS011;674;45.552;-122.600;2023-04-03T15:27:54;8.00;;;7.22;;
1360;SDS011;674;45.552;-122.600;2023-04-03T15:30:23;8.10;;;6.18;;
1360;SDS011;674;45.552;-122.600;2023-04-03T15:32:51;7.28;;;5.93;;
1360;SDS011;674;45.552;-122.600;2023-04-03T15:35:20;9.48;;;6.50;;
1360;SDS011;674;45.552;-122.600;2023-04-03T15:37:49;6.00;;;5.05;;
1360;SDS011;674;45.552;-122.600;2023-04-03T15:40:18;5.10;;;4.40;;
1360;SDS011;674;45.552;-122.600;2023-04-03T15:42:47;5.75;;;4.80;;
1360;SDS011;674;45.552;-122.600;2023-04-03T15:45:17;6.82;;;5.35;;
1360;SDS011;674;45.552;-122.600;2023-04-03T15:47:46;6.13;;;4.93;;
1360;SDS011;674;45.552;-122.600;2023-04-03T15:50:14;6.20;;;4.17;;
1360;SDS011;674;45.552;-122.600;2023-04-03T15:52:43;5.40;;;4.00;;
1360;SDS011;674;45.552;-122.600;2023-04-03T15:55:12;4.50;;;3.57;;
1360;SDS011;674;45.552;-122.600;2023-04-03T15:57:40;4.97;;;3.77;;
1360;SDS011;674;45.552;-122.600;2023-04-03T16:00:09;3.90;;;2.97;;
1360;SDS011;674;45.552;-122.600;2023-04-03T16:02:37;4.90;;;3.72;;
1360;SDS011;674;45.552;-122.600;2023-04-03T16:05:08;5.60;;;4.43;;
1360;SDS011;674;45.552;-122.600;2023-04-03T16:07:38;7.30;;;5.80;;
1360;SDS011;674;45.552;-122.600;2023-04-03T16:10:08;5.23;;;4.73;;
1360;SDS011;674;45.552;-122.600;2023-04-03T16:12:40;3.90;;;3.30;;
1360;SDS011;674;45.552;-122.600;2023-04-03T16:15:09;3.23;;;1.80;;
1360;SDS011;674;45.552;-122.600;2023-04-03T16:17:39;3.33;;;2.60;;
1360;SDS011;674;45.552;-122.600;2023-04-03T16:20:09;3.80;;;3.07;;
1360;SDS011;674;45.552;-122.600;2023-04-03T16:22:39;2.83;;;1.93;;
1360;SDS011;674;45.552;-122.600;2023-04-03T16:25:09;3.50;;;2.10;;
1360;SDS011;674;45.552;-122.600;2023-04-03T16:27:38;4.32;;;2.60;;
1360;SDS011;674;45.552;-122.600;2023-04-03T16:30:07;5.70;;;2.37;;
1360;SDS011;674;45.552;-122.600;2023-04-03T16:32:36;3.60;;;2.78;;
1360;SDS011;674;45.552;-122.600;2023-04-03T16:35:06;3.30;;;2.10;;
1360;SDS011;674;45.552;-122.600;2023-04-03T16:37:35;3.17;;;2.50;;
1360;SDS011;674;45.552;-122.600;2023-04-03T16:40:04;2.50;;;1.80;;
1360;SDS011;674;45.552;-122.600;2023-04-03T16:42:33;2.70;;;1.77;;
1360;SDS011;674;45.552;-122.600;2023-04-03T16:45:04;2.73;;;1.60;;
1360;SDS011;674;45.552;-122.600;2023-04-03T16:47:33;4.53;;;2.10;;
1360;SDS011;674;45.552;-122.600;2023-04-03T16:50:02;3.20;;;1.90;;
1360;SDS011;674;45.552;-122.600;2023-04-03T16:52:31;2.27;;;1.60;;
1360;SDS011;674;45.552;-122.600;2023-04-03T16:55:00;2.50;;;2.00;;